sensor_id;sensor_type;location;lat;lon;timestamp;P1;durP1;ratioP1;P2;durP2;ratioP2
19535;SDS011;9913;51.168;4.124;2023-04-03T00:01:17;11.77;;;7.87;;
19535;SDS011;9913;51.168;4.124;2023-04-03T00:03:46;15.37;;;8.50;;
19535;SDS011;9913;51.168;4.124;2023-04-03T00:06:14;9.63;;;7.23;;
19535;SDS011;9913;51.168;4.124;2023-04-03T00:08:43;10.20;;;7.73;;
19535;SDS011;9913;51.168;4.124;2023-04-03T00:11:11;11.97;;;7.80;;
19535;SDS011;9913;51.168;4.124;2023-04-03T00:13:41;12.00;;;7.97;;
19535;SDS011;9913;51.168;4.124;2023-04-03T00:16:10;14.37;;;8.37;;
19535;SDS011;9913;51.168;4.124;2023-04-03T00:18:39;10.90;;;7.90;;
19535;SDS011;9913;51.168;4.124;2023-04-03T00:21:09;13.47;;;8.13;;
19535;SDS011;9913;51.168;4.124;2023-04-03T00:23:39;11.27;;;8.00;;
19535;SDS011;9913;51.168;4.124;2023-04-03T00:26:08;10.37;;;8.33;;
19535;SDS011;9913;51.168;4.124;2023-04-03T00:28:38;11.90;;;7.80;;
19535;SDS011;9913;51.168;4.124;2023-04-03T00:31:09;12.47;;;7.77;;
19535;SDS011;9913;51.168;4.124;2023-04-03T00:33:37;10.93;;;6.87;;
19535;SDS011;9913;51.168;4.124;2023-04-03T00:36:07;10.77;;;7.53;;
19535;SDS011;9913;51.168;4.124;2023-04-03T00:38:36;9.13;;;7.03;;
19535;SDS011;9913;51.168;4.124;2023-04-03T00:41:04;10.47;;;7.27;;
19535;SDS011;9913;51.168;4.124;2023-04-03T00:43:33;9.80;;;8.00;;
19535;SDS011;9913;51.168;4.124;2023-04-03T00:46:02;8.80;;;6.43;;
19535;SDS011;9913;51.168;4.124;2023-04-03T00:48:36;9.83;;;6.67;;
19535;SDS011;9913;51.168;4.124;2023-04-03T00:51:09;10.67;;;7.27;;
19535;SDS011;9913;51.168;4.124;2023-04-03T00:53:41;9.10;;;6.77;;
19535;SDS011;9913;51.168;4.124;2023-04-03T00:56:12;12.93;;;7.03;;
19535;SDS011;9913;51.168;4.124;2023-04-03T00:58:45;9.20;;;6.23;;
19535;SDS011;9913;51.168;4.124;2023-04-03T01:01:18;10.60;;;6.80;;
19535;SDS011;9913;51.168;4.124;2023-04-03T01:03:51;11.03;;;7.40;;
19535;SDS011;9913;51.168;4.124;2023-04-03T01:06:21;10.97;;;6.60;;
19535;SDS011;9913;51.168;4.124;2023-04-03T01:08:53;9.47;;;7.63;;
19535;SDS011;9913;51.168;4.124;2023-04-03T01:11:23;9.80;;;7.40;;
19535;SDS011;9913;51.168;4.124;2023-04-03T01:13:52;9.33;;;7.57;;
19535;SDS011;9913;51.168;4.124;2023-04-03T01:16:21;11.87;;;7.40;;
19535;SDS011;9913;51.168;4.124;2023-04-03T01:18:51;10.60;;;7.27;;
19535;SDS011;9913;51.168;4.124;2023-04-03T01:21:43;9.97;;;8.03;;
19535;SDS011;9913;51.168;4.124;2023-04-03T01:24:27;13.00;;;7.90;;
19535;SDS011;9913;51.168;4.124;2023-04-03T01:27:03;11.90;;;7.80;;
19535;SDS011;9913;51.168;4.124;2023-04-03T01:29:34;9.50;;;7.50;;
19535;SDS011;9913;51.168;4.124;2023-04-03T01:32:04;9.87;;;7.23;;
19535;SDS011;9913;51.168;4.124;2023-04-03T01:34:33;11.50;;;8.03;;
19535;SDS011;9913;51.168;4.124;2023-04-03T01:37:02;11.60;;;7.50;;
19535;SDS011;9913;51.168;4.124;2023-04-03T01:39:30;11.03;;;8.33;;
19535;SDS011;9913;51.168;4.124;2023-04-03T01:41:59;12.07;;;7.60;;
19535;SDS011;9913;51.168;4.124;2023-04-03T01:44:34;13.27;;;7.80;;
19535;SDS011;9913;51.168;4.124;2023-04-03T01:47:06;10.57;;;8.13;;
19535;SDS011;9913;51.168;4.124;2023-04-03T01:49:35;10.87;;;8.63;;
19535;SDS011;9913;51.168;4.124;2023-04-03T01:52:04;11.73;;;8.53;;
19535;SDS011;9913;51.168;4.124;2023-04-03T01:54:32;11.07;;;8.00;;
19535;SDS011;9913;51.168;4.124;2023-04-03T01:57:01;11.43;;;7.67;;
19535;SDS011;9913;51.168;4.124;2023-04-03T01:59:29;10.90;;;7.97;;
19535;SDS011;9913;51.168;4.124;2023-04-03T02:01:58;10.10;;;8.23;;
19535;SDS011;9913;51.168;4.124;2023-04-03T02:04:28;10.90;;;8.67;;
19535;SDS011;9913;51.168;4.124;2023-04-03T02:06:56;12.80;;;8.87;;
19535;SDS011;9913;51.168;4.124;2023-04-03T02:09:25;12.97;;;9.30;;
19535;SDS011;9913;51.168;4.124;2023-04-03T02:11:54;12.83;;;9.63;;
19535;SDS011;9913;51.168;4.124;2023-04-03T02:14:22;13.93;;;9.17;;
19535;SDS011;9913;51.168;4.124;2023-04-03T02:16:51;12.03;;;8.90;;
19535;SDS011;9913;51.168;4.124;2023-04-03T02:19:21;12.30;;;9.07;;
19535;SDS011;9913;51.168;4.124;2023-04-03T02:21:51;12.50;;;9.07;;
19535;SDS011;9913;51.168;4.124;2023-04-03T02:24:20;14.07;;;9.73;;
19535;SDS011;9913;51.168;4.124;2023-04-03T02:26:48;12.10;;;9.00;;
19535;SDS011;9913;51.168;4.124;2023-04-03T02:29:16;12.30;;;9.43;;
19535;SDS011;9913;51.168;4.124;2023-04-03T02:31:44;12.90;;;8.83;;
19535;SDS011;9913;51.168;4.124;2023-04-03T02:34:14;11.07;;;9.20;;
19535;SDS011;9913;51.168;4.124;2023-04-03T02:36:43;13.70;;;8.37;;
19535;SDS011;9913;51.168;4.124;2023-04-03T02:39:14;14.63;;;8.77;;
19535;SDS011;9913;51.168;4.124;2023-04-03T02:41:43;12.20;;;8.80;;
19535;SDS011;9913;51.168;4.124;2023-04-03T02:44:18;13.97;;;9.10;;
19535;SDS011;9913;51.168;4.124;2023-04-03T02:46:46;13.47;;;9.17;;
19535;SDS011;9913;51.168;4.124;2023-04-03T02:49:16;12.17;;;9.63;;
19535;SDS011;9913;51.168;4.124;2023-04-03T02:51:44;12.90;;;9.93;;
19535;SDS011;9913;51.168;4.124;2023-04-03T02:54:12;13.23;;;9.17;;
19535;SDS011;9913;51.168;4.124;2023-04-03T02:56:47;12.67;;;9.47;;
19535;SDS011;9913;51.168;4.124;2023-04-03T02:59:15;13.33;;;9.73;;
19535;SDS011;9913;51.168;4.124;2023-04-03T03:01:44;17.20;;;11.40;;
19535;SDS011;9913;51.168;4.124;2023-04-03T03:04:12;13.23;;;9.53;;
19535;SDS011;9913;51.168;4.124;2023-04-03T03:06:41;15.43;;;9.80;;
19535;SDS011;9913;51.168;4.124;2023-04-03T03:09:10;17.73;;;9.63;;
19535;SDS011;9913;51.168;4.124;2023-04-03T03:11:43;13.90;;;9.97;;
19535;SDS011;9913;51.168;4.124;2023-04-03T03:14:11;12.47;;;10.40;;
19535;SDS011;9913;51.168;4.124;2023-04-03T03:16:39;15.37;;;11.17;;
19535;SDS011;9913;51.168;4.124;2023-04-03T03:19:08;15.33;;;10.57;;
19535;SDS011;9913;51.168;4.124;2023-04-03T03:21:36;15.00;;;10.27;;
19535;SDS011;9913;51.168;4.124;2023-04-03T03:24:05;12.67;;;9.60;;
19535;SDS011;9913;51.168;4.124;2023-04-03T03:26:34;14.30;;;10.67;;
19535;SDS011;9913;51.168;4.124;2023-04-03T03:29:04;15.50;;;10.70;;
19535;SDS011;9913;51.168;4.124;2023-04-03T03:31:33;13.67;;;10.30;;
19535;SDS011;9913;51.168;4.124;2023-04-03T03:34:01;15.43;;;11.20;;
19535;SDS011;9913;51.168;4.124;2023-04-03T03:36:29;15.17;;;10.80;;
19535;SDS011;9913;51.168;4.124;2023-04-03T03:38:58;19.17;;;12.03;;
19535;SDS011;9913;51.168;4.124;2023-04-03T03:41:27;16.30;;;11.17;;
19535;SDS011;9913;51.168;4.124;2023-04-03T03:43:55;15.03;;;11.20;;
19535;SDS011;9913;51.168;4.124;2023-04-03T03:46:26;14.00;;;10.67;;
19535;SDS011;9913;51.168;4.124;2023-04-03T03:48:55;15.30;;;10.70;;
19535;SDS011;9913;51.168;4.124;2023-04-03T03:51:23;16.77;;;9.60;;
19535;SDS011;9913;51.168;4.124;2023-04-03T03:53:52;14.80;;;10.70;;
19535;SDS011;9913;51.168;4.124;2023-04-03T03:56:20;14.80;;;10.60;;
19535;SDS011;9913;51.168;4.124;2023-04-03T03:58:48;14.73;;;10.10;;
19535;SDS011;9913;51.168;4.124;2023-04-03T04:01:17;15.33;;;11.30;;
19535;SDS011;9913;51.168;4.124;2023-04-03T04:03:49;15.17;;;11.17;;
19535;SDS011;9913;51.168;4.124;2023-04-03T04:06:21;16.07;;;10.40;;
19535;SDS011;9913;51.168;4.124;2023-04-03T04:08:51;16.33;;;11.30;;
19535;SDS011;9913;51.168;4.124;2023-04-03T04:11:21;16.87;;;11.43;;
19535;SDS011;9913;51.168;4.124;2023-04-03T04:13:51;14.97;;;10.90;;
19535;SDS011;9913;51.168;4.124;2023-04-03T04:16:24;15.20;;;10.43;;
19535;SDS011;9913;51.168;4.124;2023-04-03T04:18:54;15.47;;;10.10;;
19535;SDS011;9913;51.168;4.124;2023-04-03T04:21:23;15.77;;;11.03;;
19535;SDS011;9913;51.168;4.124;2023-04-03T04:23:53;14.43;;;10.97;;
19535;SDS011;9913;51.168;4.124;2023-04-03T04:26:23;12.40;;;10.37;;
19535;SDS011;9913;51.168;4.124;2023-04-03T04:28:52;14.50;;;10.77;;
19535;SDS011;9913;51.168;4.124;2023-04-03T04:31:20;14.03;;;9.90;;
19535;SDS011;9913;51.168;4.124;2023-04-03T04:33:48;15.80;;;11.03;;
19535;SDS011;9913;51.168;4.124;2023-04-03T04:36:19;16.03;;;10.83;;
19535;SDS011;9913;51.168;4.124;2023-04-03T04:38:48;19.20;;;11.90;;
19535;SDS011;9913;51.168;4.124;2023-04-03T04:41:21;17.90;;;11.43;;
19535;SDS011;9913;51.168;4.124;2023-04-03T04:43:50;16.53;;;11.17;;
19535;SDS011;9913;51.168;4.124;2023-04-03T04:46:20;16.63;;;11.20;;
19535;SDS011;9913;51.168;4.124;2023-04-03T04:48:53;16.23;;;11.90;;
19535;SDS011;9913;51.168;4.124;2023-04-03T04:51:28;19.77;;;13.10;;
19535;SDS011;9913;51.168;4.124;2023-04-03T04:54:09;15.87;;;11.50;;
19535;SDS011;9913;51.168;4.124;2023-04-03T04:56:38;16.67;;;10.97;;
19535;SDS011;9913;51.168;4.124;2023-04-03T04:59:07;17.93;;;11.40;;
19535;SDS011;9913;51.168;4.124;2023-04-03T05:01:36;18.47;;;11.87;;
19535;SDS011;9913;51.168;4.124;2023-04-03T05:04:09;17.10;;;11.60;;
19535;SDS011;9913;51.168;4.124;2023-04-03T05:06:40;16.13;;;11.97;;
19535;SDS011;9913;51.168;4.124;2023-04-03T05:09:14;17.70;;;12.53;;
19535;SDS011;9913;51.168;4.124;2023-04-03T05:11:44;18.07;;;11.80;;
19535;SDS011;9913;51.168;4.124;2023-04-03T05:14:14;16.30;;;11.80;;
19535;SDS011;9913;51.168;4.124;2023-04-03T05:16:44;19.07;;;12.60;;
19535;SDS011;9913;51.168;4.124;2023-04-03T05:19:12;17.80;;;12.40;;
19535;SDS011;9913;51.168;4.124;2023-04-03T05:21:43;19.20;;;12.73;;
19535;SDS011;9913;51.168;4.124;2023-04-03T05:24:14;17.23;;;12.00;;
19535;SDS011;9913;51.168;4.124;2023-04-03T05:26:43;20.40;;;13.43;;
19535;SDS011;9913;51.168;4.124;2023-04-03T05:29:13;21.03;;;12.33;;
19535;SDS011;9913;51.168;4.124;2023-04-03T05:31:42;20.20;;;13.60;;
19535;SDS011;9913;51.168;4.124;2023-04-03T05:34:12;18.17;;;12.37;;
19535;SDS011;9913;51.168;4.124;2023-04-03T05:36:43;16.57;;;12.33;;
19535;SDS011;9913;51.168;4.124;2023-04-03T05:39:13;19.10;;;13.50;;
19535;SDS011;9913;51.168;4.124;2023-04-03T05:41:44;20.47;;;12.97;;
19535;SDS011;9913;51.168;4.124;2023-04-03T05:44:12;15.73;;;12.27;;
19535;SDS011;9913;51.168;4.124;2023-04-03T05:46:43;19.73;;;11.70;;
19535;SDS011;9913;51.168;4.124;2023-04-03T05:49:11;18.50;;;13.43;;
19535;SDS011;9913;51.168;4.124;2023-04-03T05:51:40;19.90;;;13.60;;
19535;SDS011;9913;51.168;4.124;2023-04-03T05:54:25;19.70;;;13.40;;
19535;SDS011;9913;51.168;4.124;2023-04-03T05:57:07;17.50;;;12.90;;
19535;SDS011;9913;51.168;4.124;2023-04-03T05:59:36;17.63;;;11.83;;
19535;SDS011;9913;51.168;4.124;2023-04-03T06:02:04;16.03;;;11.67;;
19535;SDS011;9913;51.168;4.124;2023-04-03T06:04:32;17.00;;;11.50;;
19535;SDS011;9913;51.168;4.124;2023-04-03T06:07:01;23.30;;;11.83;;
19535;SDS011;9913;51.168;4.124;2023-04-03T06:09:31;17.30;;;11.37;;
19535;SDS011;9913;51.168;4.124;2023-04-03T06:11:59;16.00;;;11.93;;
19535;SDS011;9913;51.168;4.124;2023-04-03T06:14:29;15.93;;;11.17;;
19535;SDS011;9913;51.168;4.124;2023-04-03T06:16:57;15.63;;;11.23;;
19535;SDS011;9913;51.168;4.124;2023-04-03T06:19:26;15.93;;;12.60;;
19535;SDS011;9913;51.168;4.124;2023-04-03T06:21:57;17.10;;;12.03;;
19535;SDS011;9913;51.168;4.124;2023-04-03T06:24:25;15.87;;;11.30;;
19535;SDS011;9913;51.168;4.124;2023-04-03T06:26:55;14.57;;;11.17;;
19535;SDS011;9913;51.168;4.124;2023-04-03T06:29:24;16.37;;;11.93;;
19535;SDS011;9913;51.168;4.124;2023-04-03T06:31:52;18.33;;;12.30;;
19535;SDS011;9913;51.168;4.124;2023-04-03T06:34:21;16.97;;;12.23;;
19535;SDS011;9913;51.168;4.124;2023-04-03T06:36:49;17.73;;;12.93;;
19535;SDS011;9913;51.168;4.124;2023-04-03T06:39:19;16.80;;;13.20;;
19535;SDS011;9913;51.168;4.124;2023-04-03T06:41:49;19.37;;;13.03;;
19535;SDS011;9913;51.168;4.124;2023-04-03T06:44:26;16.10;;;12.43;;
19535;SDS011;9913;51.168;4.124;2023-04-03T06:46:55;16.10;;;12.27;;
19535;SDS011;9913;51.168;4.124;2023-04-03T06:49:23;15.87;;;12.13;;
19535;SDS011;9913;51.168;4.124;2023-04-03T06:51:51;15.63;;;11.77;;
19535;SDS011;9913;51.168;4.124;2023-04-03T06:54:20;15.13;;;11.13;;
19535;SDS011;9913;51.168;4.124;2023-04-03T06:56:48;15.90;;;12.40;;
19535;SDS011;9913;51.168;4.124;2023-04-03T06:59:17;15.83;;;12.77;;
19535;SDS011;9913;51.168;4.124;2023-04-03T07:01:47;19.97;;;12.83;;
19535;SDS011;9913;51.168;4.124;2023-04-03T07:04:16;15.63;;;10.90;;
19535;SDS011;9913;51.168;4.124;2023-04-03T07:06:46;15.67;;;11.40;;
19535;SDS011;9913;51.168;4.124;2023-04-03T07:09:14;18.30;;;12.10;;
19535;SDS011;9913;51.168;4.124;2023-04-03T07:11:43;16.93;;;11.70;;
19535;SDS011;9913;51.168;4.124;2023-04-03T07:14:11;13.03;;;11.00;;
19535;SDS011;9913;51.168;4.124;2023-04-03T07:16:39;13.83;;;11.13;;
19535;SDS011;9913;51.168;4.124;2023-04-03T07:19:10;15.80;;;10.23;;
19535;SDS011;9913;51.168;4.124;2023-04-03T07:21:38;16.03;;;10.53;;
19535;SDS011;9913;51.168;4.124;2023-04-03T07:24:08;13.80;;;9.73;;
19535;SDS011;9913;51.168;4.124;2023-04-03T07:26:41;12.50;;;8.63;;
19535;SDS011;9913;51.168;4.124;2023-04-03T07:29:11;12.37;;;8.67;;
19535;SDS011;9913;51.168;4.124;2023-04-03T07:31:41;12.23;;;8.77;;
19535;SDS011;9913;51.168;4.124;2023-04-03T07:34:12;12.73;;;9.10;;
19535;SDS011;9913;51.168;4.124;2023-04-03T07:36:41;11.83;;;8.30;;
19535;SDS011;9913;51.168;4.124;2023-04-03T07:39:09;14.83;;;8.27;;
19535;SDS011;9913;51.168;4.124;2023-04-03T07:41:37;10.07;;;7.43;;
19535;SDS011;9913;51.168;4.124;2023-04-03T07:44:06;11.03;;;7.93;;
19535;SDS011;9913;51.168;4.124;2023-04-03T07:46:36;10.63;;;7.33;;
19535;SDS011;9913;51.168;4.124;2023-04-03T07:49:04;9.67;;;8.10;;
19535;SDS011;9913;51.168;4.124;2023-04-03T07:51:36;12.13;;;7.80;;
19535;SDS011;9913;51.168;4.124;2023-04-03T07:54:05;9.87;;;7.13;;
19535;SDS011;9913;51.168;4.124;2023-04-03T07:56:33;13.70;;;6.90;;
19535;SDS011;9913;51.168;4.124;2023-04-03T07:59:01;9.53;;;6.30;;
19535;SDS011;9913;51.168;4.124;2023-04-03T08:01:30;10.67;;;6.50;;
19535;SDS011;9913;51.168;4.124;2023-04-03T08:04:00;8.43;;;5.93;;
19535;SDS011;9913;51.168;4.124;2023-04-03T08:06:30;9.20;;;6.10;;
19535;SDS011;9913;51.168;4.124;2023-04-03T08:09:13;8.57;;;6.73;;
19535;SDS011;9913;51.168;4.124;2023-04-03T08:11:42;8.47;;;6.03;;
19535;SDS011;9913;51.168;4.124;2023-04-03T08:14:11;12.40;;;6.60;;
19535;SDS011;9913;51.168;4.124;2023-04-03T08:16:44;8.87;;;5.47;;
19535;SDS011;9913;51.168;4.124;2023-04-03T08:19:13;8.73;;;6.37;;
19535;SDS011;9913;51.168;4.124;2023-04-03T08:21:52;10.97;;;6.03;;
19535;SDS011;9913;51.168;4.124;2023-04-03T08:24:23;9.23;;;5.97;;
19535;SDS011;9913;51.168;4.124;2023-04-03T08:26:52;7.80;;;5.43;;
19535;SDS011;9913;51.168;4.124;2023-04-03T08:29:20;9.20;;;5.97;;
19535;SDS011;9913;51.168;4.124;2023-04-03T08:31:48;8.27;;;5.60;;
19535;SDS011;9913;51.168;4.124;2023-04-03T08:34:17;7.60;;;5.33;;
19535;SDS011;9913;51.168;4.124;2023-04-03T08:36:46;7.43;;;5.00;;
19535;SDS011;9913;51.168;4.124;2023-04-03T08:39:15;10.00;;;4.97;;
19535;SDS011;9913;51.168;4.124;2023-04-03T08:41:45;8.07;;;4.87;;
19535;SDS011;9913;51.168;4.124;2023-04-03T08:44:15;7.23;;;4.50;;
19535;SDS011;9913;51.168;4.124;2023-04-03T08:46:54;6.63;;;3.93;;
19535;SDS011;9913;51.168;4.124;2023-04-03T08:49:28;9.50;;;4.33;;
19535;SDS011;9913;51.168;4.124;2023-04-03T08:51:59;7.30;;;4.23;;
19535;SDS011;9913;51.168;4.124;2023-04-03T08:54:33;9.37;;;4.40;;
19535;SDS011;9913;51.168;4.124;2023-04-03T08:57:04;8.20;;;3.40;;
19535;SDS011;9913;51.168;4.124;2023-04-03T08:59:34;7.60;;;3.77;;
19535;SDS011;9913;51.168;4.124;2023-04-03T09:02:10;10.30;;;3.87;;
19535;SDS011;9913;51.168;4.124;2023-04-03T09:04:50;9.60;;;3.70;;
19535;SDS011;9913;51.168;4.124;2023-04-03T09:07:20;7.53;;;3.73;;
19535;SDS011;9913;51.168;4.124;2023-04-03T09:09:53;5.47;;;3.07;;
19535;SDS011;9913;51.168;4.124;2023-04-03T09:12:27;7.13;;;3.47;;
19535;SDS011;9913;51.168;4.124;2023-04-03T09:15:02;7.13;;;2.90;;
19535;SDS011;9913;51.168;4.124;2023-04-03T09:17:46;6.23;;;2.90;;
19535;SDS011;9913;51.168;4.124;2023-04-03T09:20:25;5.37;;;2.50;;
19535;SDS011;9913;51.168;4.124;2023-04-03T09:23:01;6.40;;;3.23;;
19535;SDS011;9913;51.168;4.124;2023-04-03T09:25:41;4.63;;;2.57;;
19535;SDS011;9913;51.168;4.124;2023-04-03T09:28:12;4.73;;;2.67;;
19535;SDS011;9913;51.168;4.124;2023-04-03T09:30:41;4.73;;;2.67;;
19535;SDS011;9913;51.168;4.124;2023-04-03T09:33:09;6.00;;;2.70;;
19535;SDS011;9913;51.168;4.124;2023-04-03T09:35:39;4.13;;;2.23;;
19535;SDS011;9913;51.168;4.124;2023-04-03T09:38:16;6.63;;;2.80;;
19535;SDS011;9913;51.168;4.124;2023-04-03T09:40:47;7.40;;;3.00;;
19535;SDS011;9913;51.168;4.124;2023-04-03T09:43:26;5.87;;;2.77;;
19535;SDS011;9913;51.168;4.124;2023-04-03T09:48:50;4.17;;;2.50;;
19535;SDS011;9913;51.168;4.124;2023-04-03T09:51:34;5.17;;;2.93;;
19535;SDS011;9913;51.168;4.124;2023-04-03T09:54:23;6.47;;;2.53;;
19535;SDS011;9913;51.168;4.124;2023-04-03T09:57:06;6.97;;;2.50;;
19535;SDS011;9913;51.168;4.124;2023-04-03T09:59:40;5.03;;;2.80;;
19535;SDS011;9913;51.168;4.124;2023-04-03T10:02:21;6.53;;;2.53;;
19535;SDS011;9913;51.168;4.124;2023-04-03T10:04:56;6.20;;;2.60;;
19535;SDS011;9913;51.168;4.124;2023-04-03T10:07:33;6.97;;;2.50;;
19535;SDS011;9913;51.168;4.124;2023-04-03T10:10:10;6.00;;;2.20;;
19535;SDS011;9913;51.168;4.124;2023-04-03T10:12:47;5.93;;;2.27;;
19535;SDS011;9913;51.168;4.124;2023-04-03T10:15:17;4.63;;;2.20;;
19535;SDS011;9913;51.168;4.124;2023-04-03T10:17:49;3.67;;;2.43;;
19535;SDS011;9913;51.168;4.124;2023-04-03T10:20:26;5.37;;;2.57;;
19535;SDS011;9913;51.168;4.124;2023-04-03T10:23:01;5.07;;;2.57;;
19535;SDS011;9913;51.168;4.124;2023-04-03T10:25:43;4.67;;;2.30;;
19535;SDS011;9913;51.168;4.124;2023-04-03T10:28:24;5.53;;;2.60;;
19535;SDS011;9913;51.168;4.124;2023-04-03T10:31:01;4.90;;;2.30;;
19535;SDS011;9913;51.168;4.124;2023-04-03T10:33:39;4.57;;;2.00;;
19535;SDS011;9913;51.168;4.124;2023-04-03T10:36:21;3.93;;;1.90;;
19535;SDS011;9913;51.168;4.124;2023-04-03T10:38:59;4.60;;;2.70;;
19535;SDS011;9913;51.168;4.124;2023-04-03T10:41:34;6.93;;;2.20;;
19535;SDS011;9913;51.168;4.124;2023-04-03T10:44:12;6.33;;;2.20;;
19535;SDS011;9913;51.168;4.124;2023-04-03T10:46:50;4.03;;;2.10;;
19535;SDS011;9913;51.168;4.124;2023-04-03T10:49:25;3.77;;;2.10;;
19535;SDS011;9913;51.168;4.124;2023-04-03T10:52:10;3.57;;;2.00;;
19535;SDS011;9913;51.168;4.124;2023-04-03T10:54:45;5.10;;;2.30;;
19535;SDS011;9913;51.168;4.124;2023-04-03T10:57:17;4.37;;;1.93;;
19535;SDS011;9913;51.168;4.124;2023-04-03T10:59:48;3.60;;;2.10;;
19535;SDS011;9913;51.168;4.124;2023-04-03T11:02:22;5.47;;;2.20;;
19535;SDS011;9913;51.168;4.124;2023-04-03T11:04:58;4.93;;;2.00;;
19535;SDS011;9913;51.168;4.124;2023-04-03T11:07:29;5.23;;;2.00;;
19535;SDS011;9913;51.168;4.124;2023-04-03T11:10:03;5.97;;;2.83;;
19535;SDS011;9913;51.168;4.124;2023-04-03T11:12:44;7.37;;;2.47;;
19535;SDS011;9913;51.168;4.124;2023-04-03T11:15:16;2.97;;;2.23;;
19535;SDS011;9913;51.168;4.124;2023-04-03T11:17:48;5.83;;;2.40;;
19535;SDS011;9913;51.168;4.124;2023-04-03T11:20:23;3.90;;;2.00;;
19535;SDS011;9913;51.168;4.124;2023-04-03T11:22:57;4.40;;;1.90;;
19535;SDS011;9913;51.168;4.124;2023-04-03T11:25:30;4.60;;;1.83;;
19535;SDS011;9913;51.168;4.124;2023-04-03T11:28:02;3.40;;;1.70;;
19535;SDS011;9913;51.168;4.124;2023-04-03T11:30:32;3.67;;;1.63;;
19535;SDS011;9913;51.168;4.124;2023-04-03T11:36:12;5.20;;;1.87;;
19535;SDS011;9913;51.168;4.124;2023-04-03T11:38:55;3.17;;;1.50;;
19535;SDS011;9913;51.168;4.124;2023-04-03T11:41:28;4.30;;;1.80;;
19535;SDS011;9913;51.168;4.124;2023-04-03T11:43:59;3.47;;;1.83;;
19535;SDS011;9913;51.168;4.124;2023-04-03T11:55:41;4.83;;;2.00;;
19535;SDS011;9913;51.168;4.124;2023-04-03T11:58:12;2.50;;;1.40;;
19535;SDS011;9913;51.168;4.124;2023-04-03T12:01:01;2.90;;;1.53;;
19535;SDS011;9913;51.168;4.124;2023-04-03T12:12:34;4.10;;;1.83;;
19535;SDS011;9913;51.168;4.124;2023-04-03T12:17:53;4.73;;;2.73;;
19535;SDS011;9913;51.168;4.124;2023-04-03T12:23:25;5.40;;;2.73;;
19535;SDS011;9913;51.168;4.124;2023-04-03T12:25:59;2.73;;;1.67;;
19535;SDS011;9913;51.168;4.124;2023-04-03T12:28:38;8.27;;;3.80;;
19535;SDS011;9913;51.168;4.124;2023-04-03T12:31:08;7.83;;;2.47;;
19535;SDS011;9913;51.168;4.124;2023-04-03T12:33:44;5.20;;;2.53;;
19535;SDS011;9913;51.168;4.124;2023-04-03T12:36:28;2.60;;;1.40;;
19535;SDS011;9913;51.168;4.124;2023-04-03T12:39:16;4.23;;;1.90;;
19535;SDS011;9913;51.168;4.124;2023-04-03T12:41:56;4.23;;;2.40;;
19535;SDS011;9913;51.168;4.124;2023-04-03T12:44:35;4.70;;;1.57;;
19535;SDS011;9913;51.168;4.124;2023-04-03T12:47:19;2.43;;;1.53;;
19535;SDS011;9913;51.168;4.124;2023-04-03T12:49:52;9.60;;;3.10;;
19535;SDS011;9913;51.168;4.124;2023-04-03T12:52:25;3.53;;;1.93;;
19535;SDS011;9913;51.168;4.124;2023-04-03T12:55:01;3.93;;;1.30;;
19535;SDS011;9913;51.168;4.124;2023-04-03T12:57:36;5.47;;;2.93;;
19535;SDS011;9913;51.168;4.124;2023-04-03T13:00:18;4.87;;;2.20;;
19535;SDS011;9913;51.168;4.124;2023-04-03T13:02:55;6.13;;;2.50;;
19535;SDS011;9913;51.168;4.124;2023-04-03T13:05:24;4.17;;;2.10;;
19535;SDS011;9913;51.168;4.124;2023-04-03T13:07:54;8.20;;;3.50;;
19535;SDS011;9913;51.168;4.124;2023-04-03T13:10:28;6.20;;;2.53;;
19535;SDS011;9913;51.168;4.124;2023-04-03T13:12:58;5.17;;;2.80;;
19535;SDS011;9913;51.168;4.124;2023-04-03T13:15:40;4.73;;;1.30;;
19535;SDS011;9913;51.168;4.124;2023-04-03T13:18:21;3.73;;;1.70;;
19535;SDS011;9913;51.168;4.124;2023-04-03T13:20:51;8.13;;;2.10;;
19535;SDS011;9913;51.168;4.124;2023-04-03T13:23:20;4.30;;;1.90;;
19535;SDS011;9913;51.168;4.124;2023-04-03T13:25:51;3.83;;;1.80;;
19535;SDS011;9913;51.168;4.124;2023-04-03T13:28:20;3.80;;;1.70;;
19535;SDS011;9913;51.168;4.124;2023-04-03T13:30:58;6.53;;;2.63;;
19535;SDS011;9913;51.168;4.124;2023-04-03T13:33:30;4.07;;;2.07;;
19535;SDS011;9913;51.168;4.124;2023-04-03T13:36:05;2.90;;;2.00;;
19535;SDS011;9913;51.168;4.124;2023-04-03T13:38:35;4.27;;;1.70;;
19535;SDS011;9913;51.168;4.124;2023-04-03T13:43:54;3.87;;;1.57;;
19535;SDS011;9913;51.168;4.124;2023-04-03T13:46:35;3.43;;;2.10;;
19535;SDS011;9913;51.168;4.124;2023-04-03T13:49:16;4.63;;;2.63;;
19535;SDS011;9913;51.168;4.124;2023-04-03T13:51:47;4.30;;;2.47;;
19535;SDS011;9913;51.168;4.124;2023-04-03T13:54:33;3.67;;;2.30;;
19535;SDS011;9913;51.168;4.124;2023-04-03T13:57:12;5.93;;;3.07;;
19535;SDS011;9913;51.168;4.124;2023-04-03T13:59:42;3.73;;;2.30;;
19535;SDS011;9913;51.168;4.124;2023-04-03T14:02:17;8.23;;;2.93;;
19535;SDS011;9913;51.168;4.124;2023-04-03T14:04:50;2.87;;;1.77;;
19535;SDS011;9913;51.168;4.124;2023-04-03T14:07:23;4.97;;;2.17;;
19535;SDS011;9913;51.168;4.124;2023-04-03T14:09:51;4.73;;;1.40;;
19535;SDS011;9913;51.168;4.124;2023-04-03T14:12:24;3.10;;;1.67;;
19535;SDS011;9913;51.168;4.124;2023-04-03T14:14:57;2.50;;;1.20;;
19535;SDS011;9913;51.168;4.124;2023-04-03T14:17:28;2.33;;;1.50;;
19535;SDS011;9913;51.168;4.124;2023-04-03T14:19:58;2.67;;;1.20;;
19535;SDS011;9913;51.168;4.124;2023-04-03T14:22:28;2.30;;;1.50;;
19535;SDS011;9913;51.168;4.124;2023-04-03T14:24:58;3.00;;;1.67;;
19535;SDS011;9913;51.168;4.124;2023-04-03T14:27:29;4.97;;;2.47;;
19535;SDS011;9913;51.168;4.124;2023-04-03T14:30:02;4.03;;;2.47;;
19535;SDS011;9913;51.168;4.124;2023-04-03T14:32:32;2.70;;;1.77;;
19535;SDS011;9913;51.168;4.124;2023-04-03T14:35:01;1.93;;;1.40;;
19535;SDS011;9913;51.168;4.124;2023-04-03T14:37:30;2.47;;;1.43;;
19535;SDS011;9913;51.168;4.124;2023-04-03T14:39:59;4.33;;;1.50;;
19535;SDS011;9913;51.168;4.124;2023-04-03T14:42:32;3.90;;;1.37;;
19535;SDS011;9913;51.168;4.124;2023-04-03T14:45:02;2.17;;;1.33;;
19535;SDS011;9913;51.168;4.124;2023-04-03T14:47:32;2.87;;;1.33;;
19535;SDS011;9913;51.168;4.124;2023-04-03T14:50:03;2.30;;;1.37;;
19535;SDS011;9913;51.168;4.124;2023-04-03T14:52:34;2.20;;;1.20;;
19535;SDS011;9913;51.168;4.124;2023-04-03T14:55:03;2.47;;;1.30;;
19535;SDS011;9913;51.168;4.124;2023-04-03T14:57:35;2.20;;;1.40;;
19535;SDS011;9913;51.168;4.124;2023-04-03T15:00:07;4.43;;;2.73;;
19535;SDS011;9913;51.168;4.124;2023-04-03T15:02:41;7.33;;;3.53;;
19535;SDS011;9913;51.168;4.124;2023-04-03T15:05:10;6.13;;;2.60;;
19535;SDS011;9913;51.168;4.124;2023-04-03T15:07:39;7.13;;;2.50;;
19535;SDS011;9913;51.168;4.124;2023-04-03T15:10:14;5.57;;;2.35;;
19535;SDS011;9913;51.168;4.124;2023-04-03T15:12:47;9.02;;;3.67;;
19535;SDS011;9913;51.168;4.124;2023-04-03T15:15:17;3.43;;;1.73;;
19535;SDS011;9913;51.168;4.124;2023-04-03T15:17:47;5.67;;;3.43;;
19535;SDS011;9913;51.168;4.124;2023-04-03T15:20:21;6.28;;;3.60;;
19535;SDS011;9913;51.168;4.124;2023-04-03T15:22:51;4.60;;;2.55;;
19535;SDS011;9913;51.168;4.124;2023-04-03T15:25:22;43.67;;;19.47;;
19535;SDS011;9913;51.168;4.124;2023-04-03T15:27:53;78.90;;;26.57;;
19535;SDS011;9913;51.168;4.124;2023-04-03T15:30:24;52.75;;;19.67;;
19535;SDS011;9913;51.168;4.124;2023-04-03T15:32:53;12.95;;;5.45;;
19535;SDS011;9913;51.168;4.124;2023-04-03T15:35:21;57.83;;;21.17;;
19535;SDS011;9913;51.168;4.124;2023-04-03T15:37:50;51.33;;;20.30;;
19535;SDS011;9913;51.168;4.124;2023-04-03T15:40:18;38.03;;;12.90;;
19535;SDS011;9913;51.168;4.124;2023-04-03T15:42:47;43.35;;;17.50;;
19535;SDS011;9913;51.168;4.124;2023-04-03T15:45:19;40.65;;;17.95;;
19535;SDS011;9913;51.168;4.124;2023-04-03T15:47:48;16.63;;;7.75;;
19535;SDS011;9913;51.168;4.124;2023-04-03T15:50:17;5.27;;;2.20;;